createdAt,value
2019-04-05T00:02:16.904Z,20.87
2019-04-05T00:04:47.643Z,22.77
2019-04-05T00:07:18.431Z,20.23
2019-04-05T00:09:49.132Z,20.43
2019-04-05T00:12:21.181Z,20.13
2019-04-05T00:14:52.569Z,20.37
2019-04-05T00:17:23.979Z,23.20
2019-04-05T00:19:54.640Z,22.90
2019-04-05T00:22:26.037Z,20.03
2019-04-05T00:24:56.324Z,21.00
2019-04-05T00:27:28.112Z,17.87
2019-04-05T00:29:58.948Z,22.03
2019-04-05T00:32:29.982Z,21.17
2019-04-05T00:35:00.292Z,24.90
2019-04-05T00:37:31.041Z,22.50
2019-04-05T00:40:03.080Z,28.23
2019-04-05T00:42:33.807Z,22.53
2019-04-05T00:45:04.509Z,23.00
2019-04-05T00:47:35.726Z,25.00
2019-04-05T00:50:09.323Z,19.33
2019-04-05T00:52:40.474Z,22.07
2019-04-05T00:55:11.846Z,22.20
2019-04-05T00:57:43.474Z,22.40
2019-04-05T01:00:16.241Z,19.30
2019-04-05T01:02:47.141Z,23.07
2019-04-05T01:05:17.914Z,22.70
2019-04-05T01:07:50.853Z,24.00
2019-04-05T01:10:22.593Z,24.60
2019-04-05T01:12:54.185Z,22.70
2019-04-05T01:15:25.580Z,21.77
2019-04-05T01:17:56.817Z,26.33
2019-04-05T01:20:30.111Z,26.40
2019-04-05T01:23:03.482Z,21.83
2019-04-05T01:25:39.055Z,23.83
2019-04-05T01:28:10.919Z,20.53
2019-04-05T01:30:41.767Z,22.80
2019-04-05T01:33:12.279Z,29.57
2019-04-05T01:35:44.014Z,24.50
2019-04-05T01:38:15.286Z,23.20
2019-04-05T01:40:47.474Z,26.20
2019-04-05T01:43:19.625Z,21.23
2019-04-05T01:45:53.901Z,25.47
2019-04-05T01:48:22.746Z,25.17
2019-04-05T01:50:53.137Z,20.43
2019-04-05T01:53:24.859Z,23.97
2019-04-05T01:55:56.406Z,24.77
2019-04-05T01:58:26.952Z,29.50
2019-04-05T02:00:58.793Z,21.20
2019-04-05T02:03:30.997Z,23.57
2019-04-05T02:06:02.286Z,24.30
2019-04-05T02:08:33.579Z,23.30
2019-04-05T02:11:03.963Z,25.33
2019-04-05T02:13:34.377Z,22.90
2019-04-05T02:16:06.627Z,21.23
2019-04-05T02:18:38.390Z,23.90
2019-04-05T02:21:09.922Z,24.93
2019-04-05T02:23:41.442Z,24.97
2019-04-05T02:26:12.839Z,23.33
2019-04-05T02:28:43.364Z,22.10
2019-04-05T02:31:14.504Z,22.20
2019-04-05T02:33:45.710Z,24.53
2019-04-05T02:36:16.461Z,26.97
2019-04-05T02:38:47.087Z,21.50
2019-04-05T02:41:19.509Z,24.13
2019-04-05T02:43:52.767Z,21.03
2019-04-05T02:46:24.536Z,24.23
2019-04-05T02:48:56.014Z,23.23
2019-04-05T02:51:31.925Z,22.90
2019-04-05T02:54:03.442Z,25.17
2019-04-05T02:56:34.979Z,23.10
2019-04-05T02:59:06.507Z,27.27
2019-04-05T03:01:37.513Z,26.10
2019-04-05T03:04:08.912Z,23.07
2019-04-05T03:06:40.064Z,24.50
2019-04-05T03:09:09.934Z,27.57
2019-04-05T03:11:42.986Z,24.87
2019-04-05T03:14:13.912Z,23.23
2019-04-05T03:16:47.210Z,24.53
2019-04-05T03:19:20.391Z,26.43
2019-04-05T03:21:53.162Z,24.63
2019-04-05T03:24:27.371Z,27.07
2019-04-05T03:27:01.215Z,31.50
2019-04-05T03:29:33.143Z,26.63
2019-04-05T03:32:04.374Z,26.50
2019-04-05T03:34:36.609Z,28.20
2019-04-05T03:37:08.190Z,28.90
2019-04-05T03:39:38.702Z,31.37
2019-04-05T03:42:09.846Z,26.87
2019-04-05T03:44:40.896Z,23.47
2019-04-05T03:47:12.762Z,27.50
2019-04-05T03:49:44.349Z,25.80
2019-04-05T03:52:16.029Z,33.90
2019-04-05T03:54:47.567Z,25.07
2019-04-05T03:57:19.503Z,26.47
2019-04-05T03:59:52.528Z,27.70
2019-04-05T04:02:24.001Z,25.20
2019-04-05T04:04:55.611Z,25.90
2019-04-05T04:07:27.143Z,27.57
2019-04-05T04:09:58.511Z,28.17
2019-04-05T04:12:29.574Z,27.37
2019-04-05T04:15:02.868Z,25.17
2019-04-05T04:17:34.018Z,28.33
2019-04-05T04:20:05.486Z,23.80
2019-04-05T04:22:36.837Z,25.30
2019-04-05T04:25:08.041Z,25.60
2019-04-05T04:27:39.418Z,29.40
2019-04-05T04:30:09.979Z,27.80
2019-04-05T04:32:40.201Z,28.10
2019-04-05T04:35:09.670Z,27.03
2019-04-05T04:37:39.927Z,34.50
2019-04-05T04:40:11.521Z,26.90
2019-04-05T04:42:41.920Z,26.07
2019-04-05T04:45:12.876Z,31.10
2019-04-05T04:47:42.741Z,25.87
2019-04-05T04:50:13.167Z,25.67
2019-04-05T04:52:43.590Z,24.20
2019-04-05T04:55:13.657Z,31.53
2019-04-05T04:57:44.579Z,27.67
2019-04-05T05:00:15.266Z,25.73
2019-04-05T05:02:44.899Z,29.00
2019-04-05T05:05:15.065Z,24.97
2019-04-05T05:07:45.233Z,25.27
2019-04-05T05:10:15.871Z,24.07
2019-04-05T05:12:46.629Z,25.77
2019-04-05T05:15:16.171Z,25.73
2019-04-05T05:17:57.941Z,24.23
2019-04-05T05:20:19.158Z,27.27
2019-04-05T05:22:49.048Z,24.30
2019-04-05T05:25:18.763Z,28.60
2019-04-05T05:27:48.654Z,24.97
2019-04-05T05:30:18.405Z,28.10
2019-04-05T05:32:49.188Z,26.33
2019-04-05T05:35:19.840Z,27.03
2019-04-05T05:37:49.316Z,29.13
2019-04-05T05:40:20.053Z,29.57
2019-04-05T05:42:49.765Z,27.17
2019-04-05T05:45:19.667Z,28.60
2019-04-05T05:47:52.021Z,27.10
2019-04-05T05:50:20.774Z,26.50
2019-04-05T05:52:50.601Z,29.97
2019-04-05T05:55:20.623Z,26.27
2019-04-05T05:57:54.293Z,24.00
2019-04-05T06:00:23.181Z,22.47
2019-04-05T06:02:53.030Z,27.53
2019-04-05T06:05:23.596Z,27.47
2019-04-05T06:07:53.249Z,21.17
2019-04-05T06:10:23.328Z,22.90
2019-04-05T06:12:52.803Z,21.37
2019-04-05T06:15:23.231Z,23.90
2019-04-05T06:20:23.448Z,22.60
2019-04-05T06:22:53.209Z,24.03
2019-04-05T06:25:23.953Z,21.93
2019-04-05T06:27:54.486Z,25.27
2019-04-05T06:30:24.003Z,25.47
2019-04-05T06:32:53.750Z,21.87
2019-04-05T06:35:23.724Z,23.70
2019-04-05T06:35:39.483Z,21.53
2019-04-05T06:37:53.018Z,24.77
2019-04-05T06:40:23.395Z,23.73
2019-04-05T06:42:53.217Z,23.83
2019-04-05T06:45:23.236Z,21.70
2019-04-05T06:47:53.035Z,20.33
2019-04-05T06:50:22.274Z,19.27
2019-04-05T06:52:52.173Z,21.70
2019-04-05T06:55:21.326Z,20.40
2019-04-05T06:57:51.317Z,20.77
2019-04-05T07:00:24.062Z,22.93
2019-04-05T07:02:53.678Z,20.50
2019-04-05T07:05:23.855Z,19.13
2019-04-05T07:07:53.022Z,18.10
2019-04-05T07:10:22.123Z,21.63
2019-04-05T07:12:51.138Z,18.77
2019-04-05T07:15:20.255Z,19.30
2019-04-05T07:17:49.600Z,22.80
2019-04-05T07:20:18.725Z,19.10
2019-04-05T07:22:48.267Z,17.47
2019-04-05T07:25:18.165Z,20.07
2019-04-05T07:27:48.005Z,20.20
2019-04-05T07:30:17.602Z,18.13
2019-04-05T07:32:47.237Z,21.33
2019-04-05T07:35:17.013Z,18.63
2019-04-05T07:37:46.169Z,19.53
2019-04-05T07:40:15.663Z,20.40
2019-04-05T07:42:45.145Z,21.20
2019-04-05T07:45:15.241Z,16.97
2019-04-05T07:47:45.162Z,19.40
2019-04-05T07:50:14.979Z,20.33
2019-04-05T07:52:44.442Z,24.03
2019-04-05T07:55:14.724Z,22.00
2019-04-05T07:57:44.058Z,18.47
2019-04-05T08:00:32.601Z,17.70
2019-04-05T08:03:01.780Z,17.43
2019-04-05T08:05:31.628Z,23.77
2019-04-05T08:08:03.457Z,19.50
2019-04-05T08:10:32.886Z,18.27
2019-04-05T08:13:04.326Z,20.17
2019-04-05T08:15:34.036Z,17.13
2019-04-05T08:18:03.556Z,16.83
2019-04-05T08:20:32.853Z,17.87
2019-04-05T08:23:02.515Z,13.60
2019-04-05T08:25:31.789Z,11.40
2019-04-05T08:28:01.026Z,13.73
2019-04-05T08:30:30.575Z,13.67
2019-04-05T08:33:01.964Z,12.40
2019-04-05T08:35:30.995Z,14.30
2019-04-05T08:38:01.126Z,13.17
2019-04-05T08:40:31.769Z,8.60
2019-04-05T08:43:01.216Z,9.60
2019-04-05T08:45:30.811Z,7.87
2019-04-05T08:48:00.597Z,10.70
2019-04-05T08:50:29.714Z,11.33
2019-04-05T08:53:01.462Z,13.00
2019-04-05T08:55:31.548Z,10.13
2019-04-05T08:58:00.918Z,9.47
2019-04-05T09:00:31.220Z,9.80
2019-04-05T09:03:00.769Z,9.77
2019-04-05T09:05:33.141Z,10.50
2019-04-05T09:08:01.495Z,10.80
2019-04-05T09:10:31.523Z,11.37
2019-04-05T09:13:00.776Z,11.33
2019-04-05T09:15:30.214Z,11.30
2019-04-05T09:17:59.650Z,11.67
2019-04-05T09:20:29.046Z,12.00
2019-04-05T09:22:58.160Z,10.10
2019-04-05T09:25:28.015Z,11.30
2019-04-05T09:27:57.311Z,14.87
2019-04-05T09:30:26.641Z,12.17
2019-04-05T09:32:56.429Z,10.67
2019-04-05T09:35:26.270Z,11.80
2019-04-05T09:37:56.142Z,13.03
2019-04-05T09:40:25.784Z,14.20
2019-04-05T09:42:54.950Z,12.17
2019-04-05T09:45:24.947Z,11.27
2019-04-05T09:47:54.391Z,15.40
2019-04-05T09:50:23.443Z,13.20
2019-04-05T09:52:53.487Z,13.00
2019-04-05T09:55:22.665Z,12.53
2019-04-05T09:57:52.298Z,14.00
2019-04-05T10:00:25.316Z,12.03
2019-04-05T10:02:55.333Z,13.90
2019-04-05T10:05:24.889Z,14.00
2019-04-05T10:07:55.926Z,12.73
2019-04-05T10:10:25.872Z,13.17
2019-04-05T10:12:55.861Z,12.30
2019-04-05T10:15:25.216Z,11.97
2019-04-05T10:17:54.435Z,12.03
2019-04-05T10:20:24.081Z,12.83
2019-04-05T10:22:54.581Z,12.97
2019-04-05T10:25:25.077Z,14.20
2019-04-05T10:27:54.422Z,14.43
2019-04-05T10:30:24.455Z,14.93
2019-04-05T10:32:53.586Z,11.87
2019-04-05T10:35:22.892Z,13.17
2019-04-05T10:37:52.879Z,11.27
2019-04-05T10:40:22.581Z,13.53
2019-04-05T10:42:52.859Z,12.03
2019-04-05T10:45:22.241Z,12.93
2019-04-05T10:47:51.034Z,14.77
2019-04-05T10:50:20.404Z,14.93
2019-04-05T10:52:50.183Z,12.20
2019-04-05T10:55:20.314Z,14.13
2019-04-05T10:57:49.900Z,15.00
2019-04-05T11:00:21.369Z,13.47
2019-04-05T11:02:51.262Z,14.77
2019-04-05T11:05:20.524Z,14.80
2019-04-05T11:07:50.853Z,12.10
2019-04-05T11:10:20.169Z,12.30
2019-04-05T11:12:50.457Z,15.53
2019-04-05T11:15:21.293Z,10.50
2019-04-05T11:17:50.587Z,14.07
2019-04-05T11:20:22.187Z,14.50
2019-04-05T11:22:52.259Z,11.50
2019-04-05T11:25:22.297Z,13.17
2019-04-05T11:27:53.876Z,13.50
2019-04-05T11:30:45.275Z,15.20
2019-04-05T11:33:19.245Z,12.60
2019-04-05T11:35:47.338Z,11.40
2019-04-05T11:38:17.235Z,14.87
2019-04-05T11:40:47.051Z,14.53
2019-04-05T11:43:17.897Z,11.73
2019-04-05T11:45:48.547Z,14.70
2019-04-05T11:48:19.395Z,11.50
2019-04-05T11:50:48.982Z,13.93
2019-04-05T11:53:21.765Z,13.30
2019-04-05T11:55:50.958Z,15.17
2019-04-05T11:58:20.556Z,12.90
2019-04-05T12:00:54.268Z,10.87
2019-04-05T12:03:34.666Z,15.40
2019-04-05T12:06:04.320Z,14.00
2019-04-05T12:08:34.454Z,15.13
2019-04-05T12:11:04.129Z,12.53
2019-04-05T12:13:34.245Z,16.83
2019-04-05T12:16:06.097Z,15.50
2019-04-05T12:18:36.271Z,13.90
2019-04-05T12:21:05.965Z,23.63
2019-04-05T12:23:35.811Z,15.23
2019-04-05T12:26:05.132Z,16.73
2019-04-05T12:28:34.830Z,17.23
2019-04-05T12:31:04.209Z,25.70
2019-04-05T12:33:34.038Z,13.33
2019-04-05T12:36:04.585Z,19.63
2019-04-05T12:38:34.277Z,17.47
2019-04-05T12:41:05.164Z,15.50
2019-04-05T12:43:34.352Z,15.50
2019-04-05T12:46:05.020Z,19.23
2019-04-05T12:48:34.552Z,13.40
2019-04-05T12:51:05.553Z,15.80
2019-04-05T12:53:35.582Z,14.10
2019-04-05T12:56:05.733Z,18.73
2019-04-05T12:58:35.065Z,16.30
2019-04-05T13:01:04.816Z,16.90
2019-04-05T13:03:35.482Z,16.47
2019-04-05T13:06:05.846Z,17.97
2019-04-05T13:08:35.347Z,13.93
2019-04-05T13:11:05.023Z,16.70
2019-04-05T13:13:34.578Z,17.37
2019-04-05T13:16:04.398Z,19.83
2019-04-05T13:18:33.853Z,16.60
2019-04-05T13:21:14.333Z,18.97
2019-04-05T13:23:35.994Z,16.83
2019-04-05T13:26:06.404Z,19.43
2019-04-05T13:28:38.402Z,18.73
2019-04-05T13:31:07.848Z,24.80
2019-04-05T13:33:38.146Z,16.73
2019-04-05T13:36:08.600Z,18.70
2019-04-05T13:38:38.782Z,24.07
2019-04-05T13:41:08.534Z,21.33
2019-04-05T13:43:38.907Z,19.10
2019-04-05T13:46:21.029Z,26.33
2019-04-05T13:48:40.756Z,25.87
2019-04-05T13:51:12.873Z,20.40
2019-04-05T13:53:41.524Z,22.90
2019-04-05T13:56:11.166Z,25.37
2019-04-05T13:58:40.895Z,24.93
2019-04-05T14:01:10.826Z,26.10
2019-04-05T14:03:40.183Z,25.37
2019-04-05T14:06:10.885Z,23.07
2019-04-05T14:08:41.846Z,27.90
2019-04-05T14:11:11.672Z,23.63
2019-04-05T14:13:42.833Z,24.97
2019-04-05T14:16:13.552Z,21.40
2019-04-05T14:18:49.398Z,25.67
2019-04-05T14:21:14.750Z,23.27
2019-04-05T14:23:44.244Z,25.53
2019-04-05T14:26:14.396Z,25.93
2019-04-05T14:28:45.158Z,24.93
2019-04-05T14:31:15.666Z,22.63
2019-04-05T14:33:45.927Z,28.10
2019-04-05T14:36:15.568Z,25.47
2019-04-05T14:38:44.995Z,19.57
2019-04-05T14:41:16.152Z,24.70
2019-04-05T14:43:46.165Z,23.40
2019-04-05T14:46:15.951Z,22.57
2019-04-05T14:48:46.060Z,20.93
2019-04-05T14:51:16.255Z,28.87
2019-04-05T14:53:45.365Z,23.43
2019-04-05T14:56:14.731Z,28.20
2019-04-05T14:58:44.747Z,23.83
2019-04-05T15:01:15.552Z,24.00
2019-04-05T15:03:46.623Z,25.00
2019-04-05T15:06:16.402Z,25.67
2019-04-05T15:08:47.935Z,22.10
2019-04-05T15:11:17.911Z,23.63
2019-04-05T15:13:47.855Z,24.13
2019-04-05T15:16:17.952Z,24.20
2019-04-05T15:18:48.041Z,24.80
2019-04-05T15:21:18.324Z,21.17
2019-04-05T15:23:48.012Z,23.83
2019-04-05T15:26:20.490Z,25.50
2019-04-05T15:28:54.602Z,26.77
2019-04-05T15:31:25.746Z,25.37
2019-04-05T15:33:55.619Z,25.90
2019-04-05T15:36:26.529Z,28.20
2019-04-05T15:38:55.926Z,29.83
2019-04-05T15:41:26.971Z,29.13
2019-04-05T15:43:56.532Z,22.93
2019-04-05T15:46:27.682Z,28.93
2019-04-05T15:48:57.339Z,28.93
2019-04-05T15:51:27.531Z,29.63
2019-04-05T15:54:01.130Z,27.83
2019-04-05T15:56:29.249Z,27.20
2019-04-05T15:59:01.494Z,30.43
2019-04-05T16:01:34.223Z,26.70
2019-04-05T16:04:03.429Z,28.23
2019-04-05T16:06:33.186Z,27.53
2019-04-05T16:09:02.155Z,28.23
2019-04-05T16:11:31.865Z,35.17
2019-04-05T16:14:01.622Z,28.60
2019-04-05T16:16:31.692Z,31.97
2019-04-05T16:19:01.541Z,31.50
2019-04-05T16:21:31.589Z,29.07
2019-04-05T16:24:01.197Z,30.63
2019-04-05T16:26:30.844Z,27.33
2019-04-05T16:29:01.496Z,30.90
2019-04-05T16:31:32.752Z,28.00
2019-04-05T16:34:02.162Z,24.87
2019-04-05T16:36:31.687Z,27.40
2019-04-05T16:39:03.841Z,25.70
2019-04-05T16:41:33.662Z,27.60
2019-04-05T16:44:03.519Z,31.83
2019-04-05T16:46:33.559Z,29.73
2019-04-05T16:49:02.808Z,30.30
2019-04-05T16:51:32.335Z,28.20
2019-04-05T16:54:02.728Z,27.70
2019-04-05T16:56:32.820Z,37.23
2019-04-05T16:59:02.500Z,35.17
2019-04-05T17:01:32.757Z,27.47
2019-04-05T17:04:01.810Z,30.27
2019-04-05T17:06:31.296Z,31.97
2019-04-05T17:09:01.135Z,24.23
2019-04-05T17:11:30.966Z,29.63
2019-04-05T17:14:00.370Z,26.33
2019-04-05T17:16:30.181Z,28.27
2019-04-05T17:19:00.696Z,29.07
2019-04-05T17:21:30.964Z,27.03
2019-04-05T17:24:00.643Z,26.40
2019-04-05T17:26:29.940Z,30.70
2019-04-05T17:28:59.948Z,29.17
2019-04-05T17:31:30.055Z,27.27
2019-04-05T17:34:00.310Z,24.93
2019-04-05T17:36:29.844Z,30.40
2019-04-05T17:38:59.257Z,25.53
2019-04-05T17:41:29.454Z,29.13
2019-04-05T17:43:59.065Z,29.17
2019-04-05T17:46:29.499Z,28.87
2019-04-05T17:48:59.211Z,29.97
2019-04-05T17:51:28.516Z,30.43
2019-04-05T17:53:58.179Z,29.93
2019-04-05T17:56:27.822Z,34.73
2019-04-05T17:58:57.976Z,30.93
2019-04-05T18:01:27.299Z,31.97
2019-04-05T18:03:57.151Z,31.57
2019-04-05T18:06:27.100Z,30.13
2019-04-05T18:08:56.386Z,26.97
2019-04-05T18:11:26.748Z,27.20
2019-04-05T18:13:57.897Z,30.53
2019-04-05T18:16:27.238Z,27.40
2019-04-05T18:18:56.636Z,33.17
2019-04-05T18:21:26.076Z,28.90
2019-04-05T18:23:56.375Z,29.83
2019-04-05T18:26:26.193Z,28.80
2019-04-05T18:28:55.099Z,27.00
2019-04-05T18:31:26.066Z,26.70
2019-04-05T18:33:56.108Z,31.77
2019-04-05T18:36:25.853Z,31.90
2019-04-05T18:38:55.348Z,31.23
2019-04-05T18:41:24.869Z,32.07
2019-04-05T18:43:54.191Z,29.97
2019-04-05T18:46:23.740Z,35.70
2019-04-05T18:48:53.289Z,29.73
2019-04-05T18:51:24.058Z,31.93
2019-04-05T18:53:53.676Z,29.83
2019-04-05T18:56:23.455Z,35.50
2019-04-05T18:58:53.698Z,37.50
2019-04-05T19:01:23.758Z,30.57
2019-04-05T19:03:53.772Z,32.90
2019-04-05T19:06:23.372Z,37.17
2019-04-05T19:08:53.251Z,32.57
2019-04-05T19:11:22.702Z,36.37
2019-04-05T19:14:00.880Z,36.27
2019-04-05T19:16:23.017Z,37.97
2019-04-05T19:18:52.730Z,39.87
2019-04-05T19:21:23.772Z,35.40
2019-04-05T19:23:53.850Z,38.37
2019-04-05T19:26:23.212Z,34.17
2019-04-05T19:28:52.344Z,40.23
2019-04-05T19:49:02.460Z,37.80
2019-04-05T19:51:32.497Z,40.10
2019-04-05T19:54:02.770Z,44.63
2019-04-05T19:56:33.417Z,33.90
2019-04-05T19:59:03.027Z,39.57
2019-04-05T20:01:33.346Z,42.60
2019-04-05T20:04:02.538Z,34.20
2019-04-05T20:06:32.214Z,41.13
2019-04-05T20:09:02.002Z,37.60
2019-04-05T20:11:32.308Z,38.80
2019-04-05T20:14:03.492Z,36.50
2019-04-05T20:16:33.469Z,29.07
2019-04-05T20:19:04.762Z,35.57
2019-04-05T20:21:35.433Z,34.67
2019-04-05T20:24:13.680Z,39.60
2019-04-05T20:26:35.921Z,36.67
2019-04-05T20:29:05.275Z,40.23
2019-04-05T20:31:35.100Z,38.60
2019-04-05T20:34:04.752Z,43.50
2019-04-05T20:36:34.740Z,39.30
2019-04-05T20:39:06.944Z,43.10
2019-04-05T20:41:36.108Z,48.10
2019-04-05T20:44:07.549Z,47.50
2019-04-05T20:46:38.222Z,44.13
2019-04-05T20:49:09.438Z,44.20
2019-04-05T20:51:39.783Z,39.27
2019-04-05T20:54:09.869Z,32.43
2019-04-05T20:56:41.039Z,42.73
2019-04-05T20:59:11.150Z,37.07
2019-04-05T21:01:41.586Z,37.93
2019-04-05T21:04:11.847Z,35.50
2019-04-05T21:06:41.275Z,33.10
2019-04-05T21:09:11.945Z,38.27
2019-04-05T21:11:42.931Z,34.03
2019-04-05T21:14:13.740Z,40.97
2019-04-05T21:16:44.277Z,32.77
2019-04-05T21:19:14.696Z,37.17
2019-04-05T21:21:43.844Z,37.00
2019-04-05T21:24:13.492Z,37.67
2019-04-05T21:26:44.091Z,38.90
2019-04-05T21:29:15.687Z,34.33
2019-04-05T21:31:45.803Z,41.67
2019-04-05T21:34:16.455Z,33.77
2019-04-05T21:36:46.382Z,31.43
2019-04-05T21:39:16.500Z,39.83
2019-04-05T21:41:46.849Z,33.60
2019-04-05T21:44:17.671Z,32.80
2019-04-05T21:46:47.458Z,39.70
2019-04-05T21:49:18.138Z,29.83
2019-04-05T21:51:47.871Z,33.00
2019-04-05T21:54:17.587Z,37.33
2019-04-05T21:56:47.342Z,29.87
2019-04-05T21:59:16.530Z,34.63
2019-04-05T22:01:46.649Z,33.63
2019-04-05T22:04:16.135Z,32.20
2019-04-05T22:06:47.465Z,33.03
2019-04-05T22:09:18.006Z,34.57
2019-04-05T22:11:48.530Z,37.47
2019-04-05T22:14:20.278Z,35.53
2019-04-05T22:16:49.789Z,33.03
2019-04-05T22:19:21.286Z,34.63
2019-04-05T22:21:51.012Z,37.10
2019-04-05T22:24:20.981Z,36.07
2019-04-05T22:26:52.813Z,28.47
2019-04-05T22:29:23.526Z,32.13
2019-04-05T22:31:53.573Z,32.70
2019-04-05T22:34:22.840Z,40.90
2019-04-05T22:36:53.304Z,39.90
2019-04-05T22:39:24.089Z,42.50
2019-04-05T22:41:53.766Z,32.43
2019-04-05T22:44:25.651Z,34.33
2019-04-05T22:46:56.035Z,41.77
2019-04-05T22:49:26.510Z,34.53
2019-04-05T22:51:56.309Z,35.70
2019-04-05T22:54:27.391Z,35.20
2019-04-05T22:56:57.753Z,35.67
2019-04-05T22:59:27.728Z,35.80
2019-04-05T23:01:57.926Z,33.63
2019-04-05T23:04:27.044Z,32.70
2019-04-05T23:06:57.665Z,34.70
2019-04-05T23:09:27.610Z,31.30
2019-04-05T23:11:57.207Z,37.83
2019-04-05T23:14:26.920Z,34.30
2019-04-05T23:16:57.638Z,31.00
2019-04-05T23:19:27.285Z,31.57
2019-04-05T23:21:57.932Z,34.07
2019-04-05T23:24:27.964Z,36.53
2019-04-05T23:26:59.002Z,36.90
2019-04-05T23:29:30.205Z,34.90
2019-04-05T23:32:00.906Z,31.87
2019-04-05T23:34:31.722Z,33.63
2019-04-05T23:37:02.778Z,34.23
2019-04-05T23:39:32.743Z,36.67
2019-04-05T23:42:02.966Z,28.67
2019-04-05T23:44:32.632Z,33.47
2019-04-05T23:47:03.570Z,31.93
2019-04-05T23:49:34.778Z,31.97
2019-04-05T23:52:04.696Z,37.60
2019-04-05T23:54:34.726Z,33.23
2019-04-05T23:57:05.977Z,38.13
2019-04-05T23:59:35.448Z,39.57
